Lexa Maersk — OYYL2 — position and weather

sailwx.info

Track history (hours):
 
Tides and Currents Weather Stations Pressure Air Temp Water Temp Dewpoint Dewpoint Depression Visibility Wind Speed Wind Dir Waves Ship Positions

Lexa Maersk

Last reported at 2017-Aug-17 01:19 UTC. Time now 2017-Aug-20 11:35 UTC.
Position N 01°14' E 104°03'.

Length 265.8 m; beam 37.3 m; draft 14 m.

Type: Cargo ship. MMSI: 219979000.

Date/timePositionNaut miles runAvg speedWind from/ knotsBaromVisibWave heightAir tempDewpointWater temp
2017-Aug-17 01:19N 01°14' E 104°03'620.5
2017-Aug-17 01:00N 01°14' E 103°57'816.1
2017-Aug-17 00:31N 01°12' E 103°49'4 7.4
2017-Aug-17 00:00N 01°14' E 103°47'3 5.6
2017-Aug-16 23:31N 01°17' E 103°45'0 0.4
2017-Aug-16 22:59N 01°17' E 103°45'0 0.0
2017-Aug-16 22:26N 01°17' E 103°45'0 0.0
2017-Aug-16 21:56N 01°17' E 103°45'0 0.0
2017-Aug-16 21:29N 01°17' E 103°45'0 0.0
2017-Aug-16 20:59N 01°17' E 103°45'0 0.0
2017-Aug-16 20:29N 01°17' E 103°45'0 0.1
2017-Aug-16 19:59N 01°17' E 103°45'0 0.1
2017-Aug-16 19:29N 01°17' E 103°45'0 0.0
2017-Aug-16 18:59N 01°17' E 103°45'0 0.0
2017-Aug-16 18:29N 01°17' E 103°45'0 0.0
2017-Aug-16 17:59N 01°17' E 103°45'0 0.0
2017-Aug-16 17:29N 01°17' E 103°45'0 0.0
2017-Aug-16 16:59N 01°17' E 103°45'0 0.0
2017-Aug-16 16:29N 01°17' E 103°45'0 0.0
2017-Aug-16 15:59N 01°17' E 103°45'0 0.0
2017-Aug-16 15:29N 01°17' E 103°45'0 0.0
2017-Aug-16 14:59N 01°17' E 103°45'0 0.0
2017-Aug-16 14:29N 01°17' E 103°45'0 0.0
2017-Aug-16 13:59N 01°17' E 103°45'0 0.1
2017-Aug-16 13:29N 01°17' E 103°45'0 0.1
2017-Aug-16 12:59N 01°17' E 103°45'0 0.0
2017-Aug-16 12:29N 01°17' E 103°45'0 0.0
2017-Aug-16 11:59N 01°17' E 103°45'0 0.0
2017-Aug-16 11:29N 01°17' E 103°45'0 0.0
2017-Aug-16 10:59N 01°17' E 103°45'0 0.0
2017-Aug-16 10:29N 01°17' E 103°45'0 0.0
2017-Aug-16 09:56N 01°17' E 103°45'0 0.0
2017-Aug-16 09:29N 01°17' E 103°45'0 0.0
2017-Aug-16 08:59N 01°17' E 103°45'0 0.0
2017-Aug-16 08:29N 01°17' E 103°45'0 0.0
2017-Aug-16 07:59N 01°17' E 103°45'0 0.0
2017-Aug-16 07:29N 01°17' E 103°45'0 0.0
2017-Aug-16 06:59N 01°17' E 103°45'0 0.0
2017-Aug-16 06:29N 01°17' E 103°45'0 0.0
2017-Aug-16 05:50N 01°17' E 103°45'0 0.0
2017-Aug-16 05:29N 01°17' E 103°45'0 0.0
2017-Aug-16 04:59N 01°17' E 103°45'0 0.0
2017-Aug-16 04:26N 01°17' E 103°45'0 0.0
2017-Aug-16 03:53N 01°17' E 103°45'0 0.0
2017-Aug-16 03:29N 01°17' E 103°45'0 0.0
2017-Aug-16 02:59N 01°17' E 103°45'0 0.0
2017-Aug-16 02:29N 01°17' E 103°45'0 0.0
2017-Aug-16 01:59N 01°17' E 103°45'0 0.0
2017-Aug-16 01:29N 01°17' E 103°45'0 0.0
2017-Aug-16 00:59N 01°17' E 103°45'0 0.0
2017-Aug-16 00:29N 01°17' E 103°45'0 0.0
2017-Aug-15 23:59N 01°17' E 103°45'0 0.5
2017-Aug-15 23:30N 01°17' E 103°45'3 5.0
2017-Aug-15 23:00N 01°15' E 103°44'611.8
2017-Aug-15 22:30N 01°12' E 103°38'4 8.4
2017-Aug-15 22:00N 01°12' E 103°34'4 7.7
2017-Aug-15 21:30N 01°11' E 103°30'4 8.4
2017-Aug-15 21:00N 01°11' E 103°26'611.1
2017-Aug-15 20:30N 01°15' E 103°22'510.5
2017-Aug-15 20:00N 01°18' E 103°18'5 9.6
2017-Aug-15 19:30N 01°21' E 103°14'4 7.5
2017-Aug-15 18:56N 01°24' E 103°11'17 7.2
2017-Aug-15 16:36N 01°14' E 103°25'1 7.9
2017-Aug-15 16:26N 01°14' E 103°26'511.1
2017-Aug-15 16:00N 01°14' E 103°31'4 8.5
2017-Aug-15 15:30N 01°17' E 103°33'3 6.5
2017-Aug-15 14:59N 01°21' E 103°33'0 0.1
2017-Aug-15 14:03N 01°21' E 103°33'0 0.0
2017-Aug-15 13:57N 01°21' E 103°33'0 0.0
2017-Aug-15 13:27N 01°21' E 103°33'0 0.0
2017-Aug-15 12:57N 01°21' E 103°33'0 0.0
2017-Aug-15 12:24N 01°21' E 103°33'0 0.1
2017-Aug-15 11:57N 01°21' E 103°33'0 0.1
2017-Aug-15 11:24N 01°21' E 103°33'0 0.0
2017-Aug-15 10:45N 01°21' E 103°33'0 0.0
2017-Aug-15 10:18N 01°21' E 103°33'0 0.0
2017-Aug-15 09:51N 01°21' E 103°33'0 0.0
2017-Aug-15 09:30N 01°21' E 103°33'0 0.0
2017-Aug-15 08:33N 01°21' E 103°33'0 0.0
2017-Aug-15 08:21N 01°21' E 103°33'0 0.0
2017-Aug-15 07:45N 01°21' E 103°33'0 0.0
2017-Aug-15 07:24N 01°21' E 103°33'0 0.0
2017-Aug-15 06:57N 01°21' E 103°33'0 0.0
2017-Aug-15 06:12N 01°21' E 103°33'0 0.0
2017-Aug-15 06:00N 01°21' E 103°33'0 0.0
2017-Aug-15 05:21N 01°21' E 103°33'0 0.0
2017-Aug-15 04:57N 01°21' E 103°33'0 0.0
2017-Aug-15 04:27N 01°21' E 103°33'0 0.0
2017-Aug-15 03:57N 01°21' E 103°33'0 0.0
2017-Aug-15 03:30N 01°21' E 103°33'0 0.0
2017-Aug-15 01:51N 01°21' E 103°33'0 0.0
2017-Aug-14 20:21N 01°21' E 103°33'0 0.0
2017-Aug-14 19:51N 01°21' E 103°33'0 0.1
2017-Aug-14 19:15N 01°21' E 103°33'0 0.0
2017-Aug-14 18:03N 01°21' E 103°33'0 0.3
2017-Aug-14 17:51N 01°21' E 103°33'0 0.2
2017-Aug-14 17:27N 01°21' E 103°33'0 0.0
2017-Aug-14 17:00N 01°21' E 103°33'0 0.0
2017-Aug-14 16:18N 01°21' E 103°33'0 0.2
2017-Aug-14 15:54N 01°21' E 103°33'0 0.1
2017-Aug-14 15:12N 01°21' E 103°33'0 0.0
2017-Aug-14 15:01N 01°21' E 103°33'0 0.1
2017-Aug-14 14:24N 01°21' E 103°33'0 0.2
2017-Aug-14 14:00N 01°21' E 103°33'0 0.1
2017-Aug-14 13:27N 01°21' E 103°33'0 0.2
2017-Aug-14 13:00N 01°21' E 103°33'2 3.3
2017-Aug-14 12:30N 01°19' E 103°33'4 9.0
2017-Aug-14 12:00N 01°15' E 103°32'3 6.6
2017-Aug-14 11:29N 01°13' E 103°35'612.9
2017-Aug-14 11:01N 01°10' E 103°40'612.4
2017-Aug-14 10:31N 01°10' E 103°47'713.5
2017-Aug-14 10:00N 01°13' E 103°53'713.7
2017-Aug-14 09:30N 01°15' E 103°59'  
Track history (hours):
 
Tides and Currents Weather Stations Pressure Air Temp Water Temp Dewpoint Dewpoint Depression Visibility Wind Speed Wind Dir Waves Ship Positions

Lexa Maersk

Last reported at 2017-Aug-17 01:19 UTC. Time now 2017-Aug-20 11:35 UTC.
Position N 01°14' E 104°03'.

Length 265.8 m; beam 37.3 m; draft 14 m.

Type: Cargo ship. MMSI: 219979000.

Date/timePositionNaut miles runAvg speedWind from/ knotsBaromVisibWave heightAir tempDewpointWater temp
2017-Aug-17 01:19N 01°14' E 104°03'620.5
2017-Aug-17 01:00N 01°14' E 103°57'816.1
2017-Aug-17 00:31N 01°12' E 103°49'4 7.4
2017-Aug-17 00:00N 01°14' E 103°47'3 5.6
2017-Aug-16 23:31N 01°17' E 103°45'0 0.4
2017-Aug-16 22:59N 01°17' E 103°45'0 0.0
2017-Aug-16 22:26N 01°17' E 103°45'0 0.0
2017-Aug-16 21:56N 01°17' E 103°45'0 0.0
2017-Aug-16 21:29N 01°17' E 103°45'0 0.0
2017-Aug-16 20:59N 01°17' E 103°45'0 0.0
2017-Aug-16 20:29N 01°17' E 103°45'0 0.1
2017-Aug-16 19:59N 01°17' E 103°45'0 0.1
2017-Aug-16 19:29N 01°17' E 103°45'0 0.0
2017-Aug-16 18:59N 01°17' E 103°45'0 0.0
2017-Aug-16 18:29N 01°17' E 103°45'0 0.0
2017-Aug-16 17:59N 01°17' E 103°45'0 0.0
2017-Aug-16 17:29N 01°17' E 103°45'0 0.0
2017-Aug-16 16:59N 01°17' E 103°45'0 0.0
2017-Aug-16 16:29N 01°17' E 103°45'0 0.0
2017-Aug-16 15:59N 01°17' E 103°45'0 0.0
2017-Aug-16 15:29N 01°17' E 103°45'0 0.0
2017-Aug-16 14:59N 01°17' E 103°45'0 0.0
2017-Aug-16 14:29N 01°17' E 103°45'0 0.0
2017-Aug-16 13:59N 01°17' E 103°45'0 0.1
2017-Aug-16 13:29N 01°17' E 103°45'0 0.1
2017-Aug-16 12:59N 01°17' E 103°45'0 0.0
2017-Aug-16 12:29N 01°17' E 103°45'0 0.0
2017-Aug-16 11:59N 01°17' E 103°45'0 0.0
2017-Aug-16 11:29N 01°17' E 103°45'0 0.0
2017-Aug-16 10:59N 01°17' E 103°45'0 0.0
2017-Aug-16 10:29N 01°17' E 103°45'0 0.0
2017-Aug-16 09:56N 01°17' E 103°45'0 0.0
2017-Aug-16 09:29N 01°17' E 103°45'0 0.0
2017-Aug-16 08:59N 01°17' E 103°45'0 0.0
2017-Aug-16 08:29N 01°17' E 103°45'0 0.0
2017-Aug-16 07:59N 01°17' E 103°45'0 0.0
2017-Aug-16 07:29N 01°17' E 103°45'0 0.0
2017-Aug-16 06:59N 01°17' E 103°45'0 0.0
2017-Aug-16 06:29N 01°17' E 103°45'0 0.0
2017-Aug-16 05:50N 01°17' E 103°45'0 0.0
2017-Aug-16 05:29N 01°17' E 103°45'0 0.0
2017-Aug-16 04:59N 01°17' E 103°45'0 0.0
2017-Aug-16 04:26N 01°17' E 103°45'0 0.0
2017-Aug-16 03:53N 01°17' E 103°45'0 0.0
2017-Aug-16 03:29N 01°17' E 103°45'0 0.0
2017-Aug-16 02:59N 01°17' E 103°45'0 0.0
2017-Aug-16 02:29N 01°17' E 103°45'0 0.0
2017-Aug-16 01:59N 01°17' E 103°45'0 0.0
2017-Aug-16 01:29N 01°17' E 103°45'0 0.0
2017-Aug-16 00:59N 01°17' E 103°45'0 0.0
2017-Aug-16 00:29N 01°17' E 103°45'0 0.0
2017-Aug-15 23:59N 01°17' E 103°45'0 0.5
2017-Aug-15 23:30N 01°17' E 103°45'3 5.0
2017-Aug-15 23:00N 01°15' E 103°44'611.8
2017-Aug-15 22:30N 01°12' E 103°38'4 8.4
2017-Aug-15 22:00N 01°12' E 103°34'4 7.7
2017-Aug-15 21:30N 01°11' E 103°30'4 8.4
2017-Aug-15 21:00N 01°11' E 103°26'611.1
2017-Aug-15 20:30N 01°15' E 103°22'510.5
2017-Aug-15 20:00N 01°18' E 103°18'5 9.6
2017-Aug-15 19:30N 01°21' E 103°14'4 7.5
2017-Aug-15 18:56N 01°24' E 103°11'17 7.2
2017-Aug-15 16:36N 01°14' E 103°25'1 7.9
2017-Aug-15 16:26N 01°14' E 103°26'511.1
2017-Aug-15 16:00N 01°14' E 103°31'4 8.5
2017-Aug-15 15:30N 01°17' E 103°33'3 6.5
2017-Aug-15 14:59N 01°21' E 103°33'0 0.1
2017-Aug-15 14:03N 01°21' E 103°33'0 0.0
2017-Aug-15 13:57N 01°21' E 103°33'0 0.0
2017-Aug-15 13:27N 01°21' E 103°33'0 0.0
2017-Aug-15 12:57N 01°21' E 103°33'0 0.0
2017-Aug-15 12:24N 01°21' E 103°33'0 0.1
2017-Aug-15 11:57N 01°21' E 103°33'0 0.1
2017-Aug-15 11:24N 01°21' E 103°33'0 0.0
2017-Aug-15 10:45N 01°21' E 103°33'0 0.0
2017-Aug-15 10:18N 01°21' E 103°33'0 0.0
2017-Aug-15 09:51N 01°21' E 103°33'0 0.0
2017-Aug-15 09:30N 01°21' E 103°33'0 0.0
2017-Aug-15 08:33N 01°21' E 103°33'0 0.0
2017-Aug-15 08:21N 01°21' E 103°33'0 0.0
2017-Aug-15 07:45N 01°21' E 103°33'0 0.0
2017-Aug-15 07:24N 01°21' E 103°33'0 0.0
2017-Aug-15 06:57N 01°21' E 103°33'0 0.0
2017-Aug-15 06:12N 01°21' E 103°33'0 0.0
2017-Aug-15 06:00N 01°21' E 103°33'0 0.0
2017-Aug-15 05:21N 01°21' E 103°33'0 0.0
2017-Aug-15 04:57N 01°21' E 103°33'0 0.0
2017-Aug-15 04:27N 01°21' E 103°33'0 0.0
2017-Aug-15 03:57N 01°21' E 103°33'0 0.0
2017-Aug-15 03:30N 01°21' E 103°33'0 0.0
2017-Aug-15 01:51N 01°21' E 103°33'0 0.0
2017-Aug-14 20:21N 01°21' E 103°33'0 0.0
2017-Aug-14 19:51N 01°21' E 103°33'0 0.1
2017-Aug-14 19:15N 01°21' E 103°33'0 0.0
2017-Aug-14 18:03N 01°21' E 103°33'0 0.3
2017-Aug-14 17:51N 01°21' E 103°33'0 0.2
2017-Aug-14 17:27N 01°21' E 103°33'0 0.0
2017-Aug-14 17:00N 01°21' E 103°33'0 0.0
2017-Aug-14 16:18N 01°21' E 103°33'0 0.2
2017-Aug-14 15:54N 01°21' E 103°33'0 0.1
2017-Aug-14 15:12N 01°21' E 103°33'0 0.0
2017-Aug-14 15:01N 01°21' E 103°33'0 0.1
2017-Aug-14 14:24N 01°21' E 103°33'0 0.2
2017-Aug-14 14:00N 01°21' E 103°33'0 0.1
2017-Aug-14 13:27N 01°21' E 103°33'0 0.2
2017-Aug-14 13:00N 01°21' E 103°33'2 3.3
2017-Aug-14 12:30N 01°19' E 103°33'4 9.0
2017-Aug-14 12:00N 01°15' E 103°32'3 6.6
2017-Aug-14 11:29N 01°13' E 103°35'612.9
2017-Aug-14 11:01N 01°10' E 103°40'612.4
2017-Aug-14 10:31N 01°10' E 103°47'713.5
2017-Aug-14 10:00N 01°13' E 103°53'713.7
2017-Aug-14 09:30N 01°15' E 103°59'  

Dump ship's entire track history